Time;durP1;ratioP1;P1;durP2;ratioP2;P2;SDS_P1;SDS_P2;PMS_P1;PMS_P2;Temp;Humidity;BMP_temperature;BMP_pressure;BME280_temperature;BME280_humidity;BME280_pressure;Samples;Min_cycle;Max_cycle;Signal;HPM_P1;HPM_P2
2023/06/16 00:01:59;;;;;;;7.23;5.80;;;16.60;99.90;;;;;;5011496;28;20182;-71
2023/06/16 00:04:28;;;;;;;6.23;5.60;;;16.60;99.90;;;;;;5008054;28;20211;-69
2023/06/16 00:06:54;;;;;;;7.30;5.97;;;16.60;99.90;;;;;;5007304;28;20178;-70
2023/06/16 00:09:25;;;;;;;7.20;6.47;;;16.60;99.90;;;;;;5014351;28;20503;-70
2023/06/16 00:11:51;;;;;;;8.40;6.37;;;16.60;99.90;;;;;;5010988;28;20778;-69
2023/06/16 00:14:17;;;;;;;7.87;6.57;;;16.50;99.90;;;;;;5019000;28;20440;-70
2023/06/16 00:16:43;;;;;;;7.67;6.60;;;16.50;99.90;;;;;;5011247;28;20473;-69
2023/06/16 00:19:08;;;;;;;7.77;6.10;;;16.50;99.90;;;;;;5013926;28;20178;-69
2023/06/16 00:21:38;;;;;;;7.10;6.40;;;16.40;99.90;;;;;;4999857;28;20178;-69
2023/06/16 00:24:05;;;;;;;7.50;6.80;;;16.40;99.90;;;;;;5009996;28;20434;-69
2023/06/16 00:26:31;;;;;;;6.37;5.77;;;16.40;99.90;;;;;;5010365;28;20431;-70
2023/06/16 00:28:57;;;;;;;6.63;6.00;;;16.40;99.90;;;;;;5018807;28;20413;-70
2023/06/16 00:31:25;;;;;;;7.67;6.10;;;16.40;99.90;;;;;;4992976;28;20262;-69
2023/06/16 00:33:51;;;;;;;7.30;5.63;;;16.30;99.90;;;;;;4991462;28;20193;-70
2023/06/16 00:36:16;;;;;;;7.50;6.80;;;16.30;99.90;;;;;;5002551;28;20726;-70
2023/06/16 00:38:42;;;;;;;6.80;6.17;;;16.30;99.90;;;;;;5021773;28;20421;-70
2023/06/16 00:41:08;;;;;;;7.90;7.10;;;16.20;99.90;;;;;;5019049;28;20271;-69
2023/06/16 00:43:33;;;;;;;6.97;6.27;;;16.20;99.90;;;;;;5010848;28;20193;-70
2023/06/16 00:45:59;;;;;;;8.90;7.00;;;16.10;99.90;;;;;;5018509;28;20738;-70
2023/06/16 00:48:25;;;;;;;7.83;6.50;;;16.00;99.90;;;;;;5011146;28;20185;-70
2023/06/16 00:50:51;;;;;;;7.60;6.40;;;16.00;99.90;;;;;;4994319;28;20194;-70
2023/06/16 00:53:17;;;;;;;6.53;5.50;;;16.00;99.90;;;;;;5004379;28;20214;-70
2023/06/16 00:55:43;;;;;;;9.90;5.87;;;16.00;99.90;;;;;;5011837;28;20453;-70
2023/06/16 00:58:08;;;;;;;6.83;6.23;;;16.00;99.90;;;;;;5016826;28;20436;-69
2023/06/16 01:00:36;;;;;;;6.17;5.43;;;15.90;99.90;;;;;;5011061;28;20414;-71
2023/06/16 01:03:08;;;;;;;6.83;6.13;;;15.90;99.90;;;;;;5010281;28;20186;-69
2023/06/16 01:05:34;;;;;;;7.30;6.60;;;15.90;99.90;;;;;;5009588;28;20405;-70
2023/06/16 01:08:20;;;;;;;7.50;5.97;;;15.80;99.90;;;;;;5010381;28;20440;-70
2023/06/16 01:11:00;;;;;;;8.10;6.30;;;15.80;99.90;;;;;;5003621;28;20809;-69
2023/06/16 01:13:38;;;;;;;6.43;5.80;;;15.80;99.90;;;;;;4989819;28;20570;-69
2023/06/16 01:16:06;;;;;;;8.40;7.27;;;15.80;99.90;;;;;;5002387;28;20456;-70
2023/06/16 01:18:33;;;;;;;7.60;6.90;;;15.80;99.90;;;;;;5011956;28;20405;-69
2023/06/16 01:21:10;;;;;;;8.87;7.70;;;15.80;99.90;;;;;;5017564;28;20437;-69
2023/06/16 01:24:01;;;;;;;7.50;6.50;;;15.80;99.90;;;;;;5004633;28;21027;-69
2023/06/16 01:26:31;;;;;;;9.23;6.70;;;15.70;99.90;;;;;;5010003;28;20938;-70
2023/06/16 01:29:01;;;;;;;8.03;6.77;;;15.70;99.90;;;;;;5016832;28;20527;-70
2023/06/16 01:31:29;;;;;;;8.27;6.47;;;15.60;99.90;;;;;;4988935;28;20439;-70
2023/06/16 01:33:55;;;;;;;7.27;6.57;;;15.60;99.90;;;;;;4990130;28;20455;-70
2023/06/16 01:36:22;;;;;;;8.70;6.70;;;15.60;99.90;;;;;;5007504;28;20447;-70
2023/06/16 01:38:49;;;;;;;8.10;7.30;;;15.60;99.90;;;;;;5037547;22;20489;-68
2023/06/16 01:41:18;;;;;;;9.07;7.57;;;15.60;99.90;;;;;;5024626;28;20424;-68
2023/06/16 01:43:45;;;;;;;8.43;6.80;;;15.60;99.90;;;;;;5018890;28;20417;-69
2023/06/16 01:46:12;;;;;;;6.53;5.93;;;15.60;99.90;;;;;;5020661;28;20992;-68
2023/06/16 01:48:38;;;;;;;7.17;6.47;;;15.60;99.90;;;;;;5015379;28;20454;-70
2023/06/16 01:51:03;;;;;;;8.97;6.53;;;15.60;99.90;;;;;;5009494;28;20479;-69
2023/06/16 01:53:29;;;;;;;7.80;6.53;;;15.60;99.90;;;;;;4998162;28;20208;-69
2023/06/16 01:55:55;;;;;;;7.17;6.50;;;15.60;99.90;;;;;;5010009;28;20207;-69
2023/06/16 01:58:23;;;;;;;7.00;6.30;;;15.60;99.90;;;;;;5017822;28;20267;-71
2023/06/16 02:01:13;;;;;;;7.80;5.33;;;15.60;99.90;;;;;;5013347;28;20491;-69
2023/06/16 02:03:45;;;;;;;11.77;5.97;;;15.60;99.90;;;;;;5028188;28;20463;-69
2023/06/16 02:06:42;;;;;;;6.20;5.60;;;15.50;99.90;;;;;;5015899;28;20411;-68
2023/06/16 02:09:11;;;;;;;5.40;4.87;;;15.60;99.90;;;;;;5018332;28;21022;-69
2023/06/16 02:11:37;;;;;;;6.80;5.67;;;15.50;99.90;;;;;;5006072;28;20516;-69
2023/06/16 02:14:04;;;;;;;5.90;4.77;;;15.50;99.90;;;;;;5021027;28;20413;-69
2023/06/16 02:16:39;;;;;;;5.90;5.03;;;15.50;99.90;;;;;;5012197;28;21063;-70
2023/06/16 02:19:05;;;;;;;7.03;5.43;;;15.50;99.90;;;;;;5011039;28;20439;-68
2023/06/16 02:21:30;;;;;;;6.57;5.33;;;15.50;99.90;;;;;;5021329;28;20966;-69
2023/06/16 02:23:56;;;;;;;8.43;5.30;;;15.50;99.90;;;;;;5013414;28;20182;-71
2023/06/16 02:26:21;;;;;;;7.37;5.93;;;15.50;99.90;;;;;;5020516;28;20184;-69
2023/06/16 02:28:48;;;;;;;8.17;6.20;;;15.50;99.90;;;;;;5007431;28;20200;-69
2023/06/16 02:31:17;;;;;;;9.30;5.97;;;15.60;99.90;;;;;;5022052;28;20214;-69
2023/06/16 02:33:44;;;;;;;7.97;5.93;;;15.60;99.90;;;;;;5014603;28;20419;-69
2023/06/16 02:36:10;;;;;;;6.57;5.30;;;15.60;99.90;;;;;;5019783;28;20555;-68
2023/06/16 02:38:36;;;;;;;7.57;5.67;;;15.60;99.90;;;;;;5028349;28;20466;-69
2023/06/16 02:41:02;;;;;;;8.10;5.93;;;15.60;99.90;;;;;;5010881;28;20910;-69
2023/06/16 02:43:27;;;;;;;7.40;5.90;;;15.60;99.90;;;;;;5019519;28;20593;-69
2023/06/16 02:45:54;;;;;;;11.40;6.60;;;15.60;99.90;;;;;;5011293;28;20448;-69
2023/06/16 02:48:20;;;;;;;8.07;6.53;;;15.60;99.90;;;;;;5020298;28;20681;-69
2023/06/16 02:50:45;;;;;;;7.93;6.37;;;15.60;99.90;;;;;;5015166;28;21008;-69
2023/06/16 02:53:13;;;;;;;13.60;6.60;;;15.60;99.90;;;;;;5019173;28;20498;-69
2023/06/16 02:55:39;;;;;;;9.67;6.60;;;15.60;99.90;;;;;;4994403;28;20184;-69
2023/06/16 02:58:05;;;;;;;9.03;7.10;;;15.60;99.90;;;;;;5011876;28;20430;-69
2023/06/16 03:00:30;;;;;;;10.10;7.30;;;15.60;99.90;;;;;;5015274;28;20173;-69
2023/06/16 03:02:56;;;;;;;7.30;6.50;;;15.70;99.90;;;;;;5009752;28;20786;-69
2023/06/16 03:05:23;;;;;;;9.80;6.47;;;15.60;99.90;;;;;;5017999;28;20672;-69
2023/06/16 03:07:49;;;;;;;6.97;6.30;;;15.60;99.90;;;;;;5013277;28;20175;-70
2023/06/16 03:10:15;;;;;;;8.20;6.43;;;15.60;99.90;;;;;;5023163;28;20415;-68
2023/06/16 03:12:40;;;;;;;8.30;7.00;;;15.60;99.90;;;;;;5009171;28;20433;-69
2023/06/16 03:15:06;;;;;;;7.83;6.07;;;15.60;99.90;;;;;;5013367;28;20236;-70
2023/06/16 03:17:33;;;;;;;7.70;6.90;;;15.60;99.90;;;;;;5006579;28;20747;-68
2023/06/16 03:19:58;;;;;;;11.73;8.53;;;15.60;99.90;;;;;;4999923;28;20462;-69
2023/06/16 03:22:24;;;;;;;9.40;6.67;;;15.60;99.90;;;;;;5011772;28;20781;-70
2023/06/16 03:24:50;;;;;;;8.40;7.60;;;15.60;99.90;;;;;;5010657;28;20453;-69
2023/06/16 03:27:16;;;;;;;8.60;7.80;;;15.60;99.90;;;;;;4999071;28;20432;-70
2023/06/16 03:29:43;;;;;;;7.73;7.10;;;15.60;99.90;;;;;;5008891;28;20239;-70
2023/06/16 03:32:08;;;;;;;11.10;8.00;;;15.60;99.90;;;;;;5016013;28;20411;-70
2023/06/16 03:34:35;;;;;;;9.63;7.70;;;15.60;99.90;;;;;;5019935;28;20411;-70
2023/06/16 03:37:01;;;;;;;10.43;7.70;;;15.60;99.90;;;;;;5012992;28;20582;-70
2023/06/16 03:39:27;;;;;;;10.20;8.70;;;15.60;99.90;;;;;;5025779;28;20458;-70
2023/06/16 03:41:53;;;;;;;8.60;7.63;;;15.50;99.90;;;;;;5011556;28;20629;-69
2023/06/16 03:44:18;;;;;;;8.50;7.70;;;15.60;99.90;;;;;;5011264;28;20228;-69
2023/06/16 03:46:44;;;;;;;8.77;7.53;;;15.60;99.90;;;;;;4996714;28;20485;-69
2023/06/16 03:49:10;;;;;;;8.50;7.57;;;15.60;99.90;;;;;;5003076;28;20199;-69
2023/06/16 03:51:37;;;;;;;10.53;8.20;;;15.70;99.90;;;;;;5018195;28;20181;-68
2023/06/16 03:54:03;;;;;;;9.33;8.10;;;15.60;99.90;;;;;;5006585;28;20929;-69
2023/06/16 03:56:28;;;;;;;9.47;7.67;;;15.60;99.90;;;;;;5018175;28;20525;-69
2023/06/16 03:58:55;;;;;;;9.30;8.07;;;15.70;99.90;;;;;;5011070;28;20471;-69
2023/06/16 04:01:22;;;;;;;13.63;8.83;;;15.60;99.90;;;;;;5009649;28;20606;-69
2023/06/16 04:03:49;;;;;;;8.00;7.20;;;15.70;99.90;;;;;;5021360;28;20413;-70
2023/06/16 04:06:15;;;;;;;8.00;7.20;;;15.70;99.90;;;;;;5004641;28;20439;-70
2023/06/16 04:08:41;;;;;;;8.90;8.00;;;15.70;99.90;;;;;;4992060;28;20543;-69
2023/06/16 04:11:07;;;;;;;8.10;7.30;;;15.80;99.90;;;;;;4992358;28;20521;-70
2023/06/16 04:13:32;;;;;;;9.20;8.20;;;15.80;99.90;;;;;;5004887;28;20236;-69
2023/06/16 04:15:58;;;;;;;9.33;8.43;;;15.80;99.90;;;;;;5007375;28;20190;-69
2023/06/16 04:18:24;;;;;;;8.70;7.40;;;15.80;99.90;;;;;;5007176;28;20282;-69
2023/06/16 04:20:50;;;;;;;9.50;7.67;;;15.90;99.90;;;;;;5012320;28;20176;-69
2023/06/16 04:23:16;;;;;;;9.60;8.63;;;15.80;99.90;;;;;;5008639;28;20419;-70
2023/06/16 04:25:42;;;;;;;8.53;7.43;;;15.80;99.90;;;;;;5002303;28;20437;-70
2023/06/16 04:28:13;;;;;;;8.50;7.60;;;15.70;99.90;;;;;;5007726;28;20526;-70
2023/06/16 04:30:42;;;;;;;11.30;8.10;;;15.70;99.90;;;;;;5012656;28;20907;-69
2023/06/16 04:33:08;;;;;;;8.10;7.30;;;15.70;99.90;;;;;;5008962;28;20515;-69
2023/06/16 04:35:34;;;;;;;9.20;7.60;;;15.70;99.90;;;;;;5010754;28;20503;-69
2023/06/16 04:38:03;;;;;;;9.50;7.70;;;15.70;99.90;;;;;;5018232;28;20558;-70
2023/06/16 04:40:29;;;;;;;8.20;7.37;;;15.80;99.90;;;;;;5015460;28;20271;-69
2023/06/16 04:42:55;;;;;;;10.33;8.07;;;15.90;99.90;;;;;;5004941;28;20487;-69
2023/06/16 04:45:21;;;;;;;8.57;7.77;;;15.80;99.90;;;;;;5007865;28;20412;-69
2023/06/16 04:47:47;;;;;;;8.53;7.50;;;15.80;99.90;;;;;;5010399;28;20186;-70
2023/06/16 04:50:15;;;;;;;10.27;8.47;;;15.80;99.90;;;;;;5004086;28;20452;-70
2023/06/16 04:52:41;;;;;;;8.70;6.47;;;15.70;99.90;;;;;;4994521;28;20448;-70
2023/06/16 04:55:07;;;;;;;8.20;6.60;;;15.80;99.90;;;;;;5015099;28;20787;-69
2023/06/16 04:57:35;;;;;;;8.40;7.57;;;15.80;99.90;;;;;;5008621;28;20459;-70
2023/06/16 05:00:03;;;;;;;10.30;7.20;;;15.80;99.90;;;;;;5010545;28;20433;-69
2023/06/16 05:02:28;;;;;;;8.63;7.83;;;15.80;99.90;;;;;;5010315;28;20405;-70
2023/06/16 05:04:56;;;;;;;9.77;8.30;;;15.70;99.90;;;;;;5014409;28;20667;-69
2023/06/16 05:07:22;;;;;;;7.23;6.53;;;15.80;99.90;;;;;;5005203;28;20378;-70
2023/06/16 05:09:47;;;;;;;8.47;7.57;;;15.70;99.90;;;;;;5004596;28;20974;-68
2023/06/16 05:12:13;;;;;;;8.80;8.00;;;15.80;99.90;;;;;;5006690;28;20415;-69
2023/06/16 05:14:39;;;;;;;8.10;7.30;;;15.80;99.90;;;;;;5009111;28;20176;-69
2023/06/16 05:17:05;;;;;;;12.73;8.67;;;15.90;99.90;;;;;;5006909;28;20202;-69
2023/06/16 05:19:32;;;;;;;9.30;8.40;;;15.90;99.90;;;;;;5027618;28;20216;-69
2023/06/16 05:21:58;;;;;;;9.43;7.70;;;15.80;99.90;;;;;;5019900;28;20315;-69
2023/06/16 05:24:24;;;;;;;7.57;6.87;;;15.90;99.90;;;;;;5008988;28;20836;-70
2023/06/16 05:26:49;;;;;;;8.80;7.90;;;16.00;99.90;;;;;;4994278;28;20520;-70
2023/06/16 05:29:15;;;;;;;8.47;7.37;;;16.00;99.90;;;;;;4999096;28;20206;-69
2023/06/16 05:31:41;;;;;;;7.67;6.97;;;16.00;99.90;;;;;;5016537;28;20524;-70
2023/06/16 05:34:06;;;;;;;13.13;7.80;;;16.20;99.90;;;;;;5019933;28;20183;-69
2023/06/16 05:36:35;;;;;;;7.57;6.87;;;16.20;99.90;;;;;;5011198;28;20198;-72
2023/06/16 05:39:01;;;;;;;7.13;6.43;;;16.10;99.90;;;;;;5020265;28;20221;-69
2023/06/16 05:41:28;;;;;;;7.87;7.07;;;16.20;99.90;;;;;;5012383;28;20420;-69
2023/06/16 05:43:57;;;;;;;7.07;6.47;;;16.20;99.90;;;;;;5010624;28;20413;-69
2023/06/16 05:46:22;;;;;;;6.30;5.80;;;16.20;99.90;;;;;;5007188;28;20479;-71
2023/06/16 05:48:49;;;;;;;8.20;7.20;;;16.20;99.90;;;;;;5008736;28;20441;-69
2023/06/16 05:51:15;;;;;;;10.57;7.87;;;16.20;99.90;;;;;;5008263;28;20181;-69
2023/06/16 05:53:41;;;;;;;8.10;7.40;;;16.20;99.90;;;;;;5010505;28;20778;-69
2023/06/16 05:56:06;;;;;;;7.37;6.67;;;16.20;99.90;;;;;;5014490;28;20460;-69
2023/06/16 05:58:35;;;;;;;7.50;6.80;;;16.30;99.90;;;;;;5013090;28;20197;-69
2023/06/16 06:01:07;;;;;;;8.23;7.53;;;16.30;99.90;;;;;;5009566;28;20549;-69
2023/06/16 06:03:33;;;;;;;8.20;6.87;;;16.40;99.90;;;;;;5013761;28;20773;-70
2023/06/16 06:05:58;;;;;;;7.63;6.73;;;16.50;99.90;;;;;;5005441;28;20429;-70
2023/06/16 06:08:27;;;;;;;8.83;6.93;;;16.40;99.90;;;;;;5014894;28;20429;-69
2023/06/16 06:10:56;;;;;;;7.20;6.60;;;16.40;99.90;;;;;;5002911;28;20193;-70
2023/06/16 06:13:22;;;;;;;8.17;6.97;;;16.40;99.90;;;;;;5019443;28;20414;-70
2023/06/16 06:15:48;;;;;;;6.50;5.90;;;16.50;99.90;;;;;;5017105;28;20442;-70
2023/06/16 06:18:13;;;;;;;7.10;5.50;;;16.30;99.90;;;;;;5011402;28;20190;-69
2023/06/16 06:20:39;;;;;;;8.30;5.83;;;16.30;99.90;;;;;;5016732;28;20417;-69
2023/06/16 06:23:05;;;;;;;6.90;6.30;;;16.30;99.90;;;;;;5008614;28;20278;-70
2023/06/16 06:25:31;;;;;;;6.90;6.20;;;16.20;99.90;;;;;;5007497;28;20410;-69
2023/06/16 06:27:57;;;;;;;7.03;6.40;;;16.20;99.90;;;;;;5006327;28;20172;-70
2023/06/16 06:30:24;;;;;;;7.13;5.90;;;16.20;99.90;;;;;;5011102;28;20546;-69
2023/06/16 06:32:50;;;;;;;7.60;6.73;;;16.20;99.90;;;;;;5005262;28;20202;-69
2023/06/16 06:35:16;;;;;;;6.87;6.13;;;16.20;99.90;;;;;;5016511;28;20409;-69
2023/06/16 06:37:42;;;;;;;7.20;6.50;;;16.00;99.90;;;;;;5019456;28;20197;-69
2023/06/16 06:40:08;;;;;;;7.87;6.37;;;16.10;99.90;;;;;;5012303;28;20967;-70
2023/06/16 06:42:33;;;;;;;7.10;6.40;;;16.10;99.90;;;;;;5022793;28;20266;-69
2023/06/16 06:44:59;;;;;;;6.73;6.23;;;16.10;99.90;;;;;;5009805;28;20170;-69
2023/06/16 06:47:25;;;;;;;6.50;5.90;;;16.20;99.90;;;;;;5009028;28;20171;-69
2023/06/16 06:49:50;;;;;;;6.73;6.07;;;16.00;99.90;;;;;;5005252;28;20618;-69
2023/06/16 06:52:16;;;;;;;7.70;7.00;;;16.10;99.90;;;;;;5019580;28;20204;-70
2023/06/16 06:54:42;;;;;;;11.80;6.07;;;16.20;99.90;;;;;;5007404;28;20174;-69
2023/06/16 06:57:07;;;;;;;6.27;5.77;;;16.20;99.90;;;;;;5023160;28;20206;-70
2023/06/16 06:59:33;;;;;;;6.23;5.70;;;16.30;99.90;;;;;;5009217;28;20224;-70
2023/06/16 07:01:59;;;;;;;6.97;6.37;;;16.10;99.90;;;;;;5012490;28;20200;-70
2023/06/16 07:04:25;;;;;;;6.70;6.10;;;16.20;99.90;;;;;;4994586;28;20440;-69
2023/06/16 07:06:51;;;;;;;7.27;6.67;;;16.30;99.90;;;;;;4995648;28;21408;-70
2023/06/16 07:09:17;;;;;;;6.10;5.50;;;16.30;99.90;;;;;;5001113;28;20388;-69
2023/06/16 07:11:43;;;;;;;6.03;5.43;;;16.30;99.90;;;;;;5003420;28;20413;-69
2023/06/16 07:14:08;;;;;;;7.40;6.80;;;16.30;99.90;;;;;;5009560;28;20671;-75
2023/06/16 07:16:34;;;;;;;6.57;5.97;;;16.20;99.90;;;;;;5005749;28;20283;-69
2023/06/16 07:19:01;;;;;;;6.47;5.87;;;16.10;99.90;;;;;;5016617;28;20192;-73
2023/06/16 07:21:27;;;;;;;7.03;6.30;;;16.00;99.90;;;;;;5015654;28;20492;-73
2023/06/16 07:23:53;;;;;;;7.60;6.83;;;16.20;99.90;;;;;;5025482;28;20415;-74
2023/06/16 07:26:19;;;;;;;8.10;7.33;;;16.20;99.90;;;;;;5021300;28;20435;-75
2023/06/16 07:28:44;;;;;;;7.93;7.00;;;16.20;99.90;;;;;;4994384;28;20194;-74
2023/06/16 07:31:10;;;;;;;7.50;6.80;;;16.30;99.90;;;;;;5020429;28;20643;-74
2023/06/16 07:33:36;;;;;;;7.87;7.07;;;16.40;99.90;;;;;;5014106;28;20186;-74
2023/06/16 07:36:02;;;;;;;7.67;6.90;;;16.60;99.90;;;;;;5010034;28;20468;-74
2023/06/16 07:38:28;;;;;;;8.47;7.10;;;16.70;99.90;;;;;;5013472;28;20206;-74
2023/06/16 07:40:54;;;;;;;7.63;6.93;;;16.70;99.90;;;;;;5008659;28;20418;-73
2023/06/16 07:43:21;;;;;;;8.90;8.00;;;16.70;99.90;;;;;;5018210;28;20407;-74
2023/06/16 07:45:47;;;;;;;9.97;8.40;;;16.80;99.90;;;;;;5019282;28;20504;-74
2023/06/16 07:48:13;;;;;;;8.87;8.00;;;16.80;99.90;;;;;;5011582;28;21027;-74
2023/06/16 07:50:40;;;;;;;9.10;8.07;;;16.90;99.90;;;;;;5011976;28;20405;-74
2023/06/16 07:53:06;;;;;;;8.97;8.13;;;17.70;99.90;;;;;;5012693;28;20431;-74
2023/06/16 07:55:32;;;;;;;10.53;9.40;;;18.10;99.90;;;;;;5006410;28;20944;-73
2023/06/16 07:57:57;;;;;;;13.67;8.33;;;18.60;99.90;;;;;;5010842;28;20502;-73
2023/06/16 08:00:23;;;;;;;7.30;6.60;;;19.00;99.90;;;;;;5004573;28;20166;-73
2023/06/16 08:02:50;;;;;;;8.40;7.67;;;19.70;99.90;;;;;;5018291;28;20206;-74
2023/06/16 08:05:20;;;;;;;8.20;7.40;;;20.70;99.90;;;;;;5017653;28;20415;-74
2023/06/16 08:07:46;;;;;;;8.80;7.93;;;21.00;99.90;;;;;;5015017;28;20781;-74
2023/06/16 08:10:12;;;;;;;7.17;6.57;;;20.50;99.90;;;;;;5012936;28;20452;-74
2023/06/16 08:12:37;;;;;;;6.50;5.90;;;20.70;99.90;;;;;;4998282;28;20267;-74
2023/06/16 08:15:04;;;;;;;7.33;6.63;;;20.60;99.90;;;;;;5017857;28;20529;-72
2023/06/16 08:17:30;;;;;;;9.03;6.30;;;20.70;99.90;;;;;;5015612;28;20196;-73
2023/06/16 08:19:56;;;;;;;6.70;6.10;;;21.70;99.90;;;;;;5008153;28;20489;-73
2023/06/16 08:22:22;;;;;;;6.17;5.57;;;23.60;99.90;;;;;;5012300;28;20454;-73
2023/06/16 08:24:47;;;;;;;7.63;5.70;;;23.20;99.90;;;;;;5013084;28;20594;-73
2023/06/16 08:27:14;;;;;;;6.73;5.80;;;23.20;99.90;;;;;;5012659;28;20236;-73
2023/06/16 08:29:39;;;;;;;5.87;5.40;;;21.00;99.90;;;;;;4993994;28;20565;-76
2023/06/16 08:32:06;;;;;;;10.53;4.70;;;20.10;99.90;;;;;;5005759;28;20482;-75
2023/06/16 08:34:33;;;;;;;5.33;4.50;;;19.50;99.90;;;;;;4997637;28;20185;-74
2023/06/16 08:36:58;;;;;;;6.97;6.10;;;19.30;99.90;;;;;;5019405;28;20464;-74
2023/06/16 08:39:24;;;;;;;5.60;5.10;;;18.70;99.90;;;;;;5014765;28;20477;-74
2023/06/16 08:41:51;;;;;;;5.63;5.20;;;18.40;99.90;;;;;;5012441;28;20183;-72
2023/06/16 08:44:19;;;;;;;6.23;5.63;;;18.00;99.90;;;;;;5017336;28;20167;-75
2023/06/16 08:46:45;;;;;;;7.70;5.17;;;17.40;99.90;;;;;;5012188;28;20439;-76
2023/06/16 08:49:14;;;;;;;5.40;4.90;;;17.00;99.90;;;;;;5013050;28;20437;-76
2023/06/16 08:51:52;;;;;;;6.03;4.77;;;16.80;99.90;;;;;;5008398;28;20435;-77
2023/06/16 08:54:24;;;;;;;5.47;4.97;;;16.70;99.90;;;;;;5007618;28;20414;-76
2023/06/16 08:56:51;;;;;;;4.90;4.50;;;16.80;99.90;;;;;;5009246;28;20957;-76
2023/06/16 08:59:18;;;;;;;6.90;5.17;;;16.70;99.90;;;;;;5007066;28;20437;-76
2023/06/16 09:01:46;;;;;;;6.00;5.43;;;16.70;99.90;;;;;;5015212;28;20501;-76
2023/06/16 09:04:13;;;;;;;7.10;4.23;;;16.60;99.90;;;;;;5011572;28;20788;-75
2023/06/16 09:06:48;;;;;;;5.33;4.83;;;16.50;99.90;;;;;;5026294;28;20455;-75
2023/06/16 09:09:16;;;;;;;4.30;3.90;;;16.70;99.90;;;;;;5003363;28;20957;-74
2023/06/16 09:11:41;;;;;;;6.43;4.90;;;16.80;99.90;;;;;;5003936;28;20443;-75
2023/06/16 09:14:12;;;;;;;4.93;4.43;;;16.90;99.90;;;;;;4994571;28;20434;-73
2023/06/16 09:16:39;;;;;;;4.13;3.73;;;17.10;99.90;;;;;;4998321;28;20232;-74
2023/06/16 09:19:09;;;;;;;4.60;4.20;;;17.10;99.90;;;;;;5006629;28;20442;-74
2023/06/16 09:21:35;;;;;;;5.27;4.73;;;16.90;99.90;;;;;;5006847;28;20403;-74
2023/06/16 09:24:01;;;;;;;4.80;4.40;;;16.90;99.90;;;;;;4999543;28;20526;-75
2023/06/16 09:26:35;;;;;;;4.60;4.00;;;16.90;99.90;;;;;;5017166;28;20457;-73
2023/06/16 09:29:02;;;;;;;5.10;4.47;;;17.00;99.90;;;;;;5007114;28;20447;-72
2023/06/16 09:31:28;;;;;;;5.57;5.00;;;17.40;99.90;;;;;;5000662;28;20525;-72
2023/06/16 09:34:05;;;;;;;5.40;4.90;;;17.90;99.90;;;;;;5007609;28;20524;-71
2023/06/16 09:36:31;;;;;;;4.27;3.87;;;18.50;99.90;;;;;;5014177;28;20540;-72
2023/06/16 09:38:57;;;;;;;5.03;4.63;;;18.70;99.90;;;;;;5002057;28;20500;-73
2023/06/16 09:41:23;;;;;;;4.80;4.40;;;19.00;99.90;;;;;;5007807;28;20463;-73
2023/06/16 09:43:49;;;;;;;8.73;7.87;;;19.20;99.90;;;;;;5009797;28;20258;-71
2023/06/16 09:46:15;;;;;;;5.10;4.60;;;19.40;99.90;;;;;;5013624;28;20644;-72
2023/06/16 09:48:48;;;;;;;4.80;4.00;;;19.70;99.90;;;;;;5011662;28;20441;-71
2023/06/16 09:51:23;;;;;;;4.80;3.70;;;19.50;99.90;;;;;;5010153;28;20782;-71
2023/06/16 09:53:51;;;;;;;5.00;2.80;;;20.10;99.90;;;;;;5010228;28;20434;-71
2023/06/16 09:56:17;;;;;;;3.23;2.93;;;19.90;99.90;;;;;;5010914;28;20456;-72
2023/06/16 09:58:47;;;;;;;3.13;2.93;;;19.90;99.90;;;;;;5008077;28;20446;-72
2023/06/16 10:01:14;;;;;;;6.60;5.63;;;19.50;99.90;;;;;;5010527;28;20421;-72
2023/06/16 10:03:46;;;;;;;8.80;7.47;;;19.30;99.90;;;;;;5013775;28;20407;-72
2023/06/16 10:06:23;;;;;;;8.70;5.20;;;19.20;99.90;;;;;;5010934;28;20906;-71
2023/06/16 10:08:49;;;;;;;6.57;4.90;;;19.60;99.90;;;;;;5018645;28;20845;-71
2023/06/16 10:11:16;;;;;;;5.27;3.87;;;19.70;99.90;;;;;;5012098;28;20779;-71
2023/06/16 10:13:50;;;;;;;4.90;3.90;;;19.40;99.90;;;;;;5022493;28;20423;-71
2023/06/16 10:16:20;;;;;;;5.10;4.60;;;19.60;99.90;;;;;;5006940;28;20468;-71
2023/06/16 10:18:47;;;;;;;5.30;4.77;;;19.60;99.90;;;;;;5006804;28;20445;-71
2023/06/16 10:21:13;;;;;;;4.70;4.30;;;19.50;99.90;;;;;;5001803;28;21030;-71
2023/06/16 10:23:40;;;;;;;7.23;4.87;;;19.50;99.90;;;;;;5012103;28;20493;-71
2023/06/16 10:26:06;;;;;;;6.20;5.17;;;19.10;99.90;;;;;;5010437;28;20435;-71
2023/06/16 10:28:35;;;;;;;4.43;4.13;;;19.10;99.90;;;;;;5015745;28;20460;-72
2023/06/16 10:31:02;;;;;;;7.07;6.37;;;19.10;99.90;;;;;;5016135;28;20419;-72
2023/06/16 10:33:28;;;;;;;6.47;5.73;;;19.00;99.90;;;;;;5011273;28;20849;-72
2023/06/16 10:36:01;;;;;;;6.50;5.50;;;18.80;99.90;;;;;;5017584;28;20508;-72
2023/06/16 10:38:38;;;;;;;7.60;6.90;;;18.80;99.90;;;;;;5011393;28;20468;-73
2023/06/16 10:41:06;;;;;;;12.43;6.30;;;18.60;99.90;;;;;;5007684;28;20415;-71
2023/06/16 10:43:32;;;;;;;5.23;4.70;;;18.60;99.90;;;;;;5019038;28;20413;-72
2023/06/16 10:46:14;;;;;;;8.40;7.60;;;18.70;99.90;;;;;;5009634;28;20443;-71
2023/06/16 10:48:57;;;;;;;6.40;4.50;;;18.70;99.90;;;;;;4998392;28;20199;-71
2023/06/16 10:51:44;;;;;;;8.50;7.70;;;18.60;99.90;;;;;;5019089;28;20425;-71
2023/06/16 10:54:11;;;;;;;8.70;6.30;;;19.20;99.90;;;;;;5009947;28;20794;-69
2023/06/16 10:57:03;;;;;;;6.10;5.57;;;19.60;99.90;;;;;;5018046;28;20464;-71
2023/06/16 10:59:29;;;;;;;4.50;4.10;;;19.90;99.90;;;;;;5013005;28;20425;-71
2023/06/16 11:01:57;;;;;;;4.93;3.83;;;20.10;99.90;;;;;;5009097;28;20415;-70
2023/06/16 11:04:23;;;;;;;4.73;4.33;;;19.90;99.90;;;;;;5009856;28;20524;-71
2023/06/16 11:07:04;;;;;;;9.43;7.37;;;19.90;99.90;;;;;;5017217;28;20540;-71
2023/06/16 11:09:31;;;;;;;11.50;9.33;;;19.90;99.90;;;;;;5022470;28;20427;-72
2023/06/16 11:11:58;;;;;;;7.00;6.23;;;20.60;99.90;;;;;;5015206;28;20414;-70
2023/06/16 11:14:25;;;;;;;23.03;18.50;;;20.60;99.90;;;;;;5021771;28;20427;-71
2023/06/16 11:16:51;;;;;;;5.70;5.20;;;20.60;99.90;;;;;;5014633;28;20466;-71
2023/06/16 11:19:20;;;;;;;6.40;5.80;;;20.70;99.90;;;;;;5017462;28;20434;-71
2023/06/16 11:21:46;;;;;;;6.57;5.97;;;20.50;99.90;;;;;;5015037;28;20794;-71
2023/06/16 11:24:13;;;;;;;6.20;5.33;;;20.50;99.90;;;;;;5017077;28;20840;-71
2023/06/16 11:26:39;;;;;;;4.90;4.50;;;20.60;99.90;;;;;;5002650;28;20462;-71
2023/06/16 11:29:06;;;;;;;7.50;5.27;;;20.80;99.90;;;;;;5018217;28;20946;-71
2023/06/16 11:31:35;;;;;;;5.63;5.13;;;21.40;99.90;;;;;;5021975;28;20839;-71
2023/06/16 11:34:02;;;;;;;4.13;3.73;;;21.30;99.90;;;;;;5013867;28;20431;-71
2023/06/16 11:36:27;;;;;;;4.70;4.20;;;21.60;99.90;;;;;;5018750;28;20455;-72
2023/06/16 11:38:57;;;;;;;9.13;8.20;;;21.70;99.90;;;;;;5012026;28;20810;-71
2023/06/16 11:41:29;;;;;;;4.80;4.50;;;21.80;99.90;;;;;;5011797;28;20205;-72
2023/06/16 11:43:55;;;;;;;6.73;5.10;;;21.30;99.90;;;;;;5016084;28;20504;-65
2023/06/16 11:46:26;;;;;;;8.50;6.17;;;20.60;99.90;;;;;;5015467;28;20445;-68
2023/06/16 11:48:52;;;;;;;5.87;5.37;;;20.50;99.90;;;;;;5021709;28;20198;-68
2023/06/16 11:51:19;;;;;;;6.57;5.30;;;20.30;99.90;;;;;;5017731;28;20435;-68
2023/06/16 11:53:45;;;;;;;7.43;5.30;;;20.00;99.90;;;;;;5014725;28;20421;-68
2023/06/16 11:56:15;;;;;;;8.60;4.93;;;19.50;99.90;;;;;;5018915;28;20981;-68
2023/06/16 11:58:43;;;;;;;5.27;4.60;;;19.20;99.90;;;;;;5015026;28;20435;-67
2023/06/16 12:01:13;;;;;;;9.03;5.57;;;19.00;99.90;;;;;;5015273;28;20408;-69
2023/06/16 12:03:40;;;;;;;6.00;4.97;;;19.10;99.90;;;;;;5004178;28;20410;-68
2023/06/16 12:06:06;;;;;;;7.27;5.50;;;19.10;99.90;;;;;;5008137;28;20423;-69
2023/06/16 12:08:46;;;;;;;5.27;4.77;;;19.00;99.90;;;;;;5016861;28;20426;-68
2023/06/16 12:11:16;;;;;;;6.17;5.60;;;19.30;99.90;;;;;;5012846;28;20421;-69
2023/06/16 12:13:43;;;;;;;4.60;4.20;;;19.40;99.90;;;;;;5019863;28;20466;-70
2023/06/16 12:16:11;;;;;;;6.13;5.50;;;19.70;99.90;;;;;;5009359;28;20461;-68
2023/06/16 12:18:37;;;;;;;5.53;4.97;;;19.70;99.90;;;;;;5018101;28;20432;-68
2023/06/16 12:21:24;;;;;;;7.23;5.70;;;19.60;99.90;;;;;;5008690;28;20421;-68
2023/06/16 12:23:52;;;;;;;6.30;5.17;;;19.60;99.90;;;;;;5011691;28;20548;-68
2023/06/16 12:26:28;;;;;;;4.93;4.27;;;19.60;99.90;;;;;;5019517;28;20412;-71
2023/06/16 12:28:55;;;;;;;4.90;4.40;;;19.20;99.90;;;;;;5012897;28;20528;-68
2023/06/16 12:31:22;;;;;;;5.00;4.50;;;19.30;99.90;;;;;;5017838;28;20423;-69
2023/06/16 12:33:55;;;;;;;7.00;4.87;;;19.30;99.90;;;;;;5011006;28;20412;-69
2023/06/16 12:36:22;;;;;;;6.20;4.30;;;19.30;99.90;;;;;;5015530;28;20513;-68
2023/06/16 12:38:47;;;;;;;5.07;3.90;;;19.30;99.90;;;;;;5022740;28;20861;-69
2023/06/16 12:41:14;;;;;;;4.70;3.87;;;19.30;99.90;;;;;;5013913;28;20481;-70
2023/06/16 12:43:51;;;;;;;5.27;4.60;;;19.20;99.90;;;;;;5020190;28;20172;-69
2023/06/16 12:46:18;;;;;;;6.27;4.30;;;19.00;99.90;;;;;;5012013;28;20417;-69
2023/06/16 12:48:44;;;;;;;5.20;4.40;;;18.80;99.90;;;;;;5017570;28;20437;-69